< Cyclone 198421 1984 Season Cyclone 198501 >
Cyclone 198422 (LANCE)
General InformationTrack Information on Google MapsDetailed Wind InformationList of All Images || ResourceGoogle EarthGE AnimationAtom FeedGeoJSON
Detalied Best Track (Time Zone = UTC)
Year Month Day Hour Lat. Long. Pressure (hPa) Wind (kt) Class Image Chart
1984 4 4 00 -13.4 153.4 1005 20 2 Image --
1984 4 4 06 -13.5 153.3 1001 25 2 Image --
1984 4 4 12 -13.7 153.1 1001 25 2 Image --
1984 4 4 18 -14.3 152.6 1000 25 2 Image --
1984 4 5 00 -14.9 151.9 998 30 2 Image --
1984 4 5 03 -15.2 151.6 996 35 3 Image --
1984 4 5 06 -15.5 151.4 994 40 3 Image --
1984 4 5 12 -16.1 151.1 992 45 3 Image --
1984 4 5 18 -16.3 151.1 995 40 3 Image --
1984 4 6 00 -16.7 151.1 995 40 3 Image --
1984 4 6 06 -17.5 151.2 995 40 3 Image --
1984 4 6 12 -18.8 151.5 995 40 3 Image --
1984 4 6 18 -19.4 151.7 995 40 3 Image --
1984 4 7 00 -20.1 152.1 995 35 3 Image --
1984 4 7 03 -20.5 152.3 995 35 3 Image --
1984 4 7 06 -21.0 152.5 996 30 2 Image --
1984 4 7 09 -21.6 152.8 998 30 2 Image --
1984 4 7 12 -22.2 153.1 998 30 2 Image --
1984 4 7 15 -22.9 153.5 998 30 2 Image --
1984 4 7 23 -26.3 154.5 988 45 3 Image --
1984 4 8 11 -26.4 154.7 985 50 4 Image --
1984 4 8 23 -26.6 155.4 980 60 4 Image --
1984 4 9 11 -26.5 157.2 990 50 4 Image --
1984 4 9 23 -26.4 160.0 995 30 2 Image --
< Cyclone 198421 1984 Season Cyclone 198501 >

Help